createdAt,value
2022-10-02T00:00:31.832Z,101245.03
2022-10-02T00:03:10.391Z,101250.22
2022-10-02T00:05:44.735Z,101246.56
2022-10-02T00:08:24.066Z,101261.16
2022-10-02T00:11:16.410Z,101260.94
2022-10-02T00:13:48.763Z,101272.25
2022-10-02T00:16:38.342Z,101279.00
2022-10-02T00:19:05.449Z,101280.03
2022-10-02T00:21:50.120Z,101278.41
2022-10-02T00:24:22.405Z,101281.44
2022-10-02T00:27:28.336Z,101281.06
2022-10-02T00:29:59.014Z,101298.72
2022-10-02T00:32:34.333Z,101296.59
2022-10-02T00:35:38.533Z,101306.47
2022-10-02T00:38:37.478Z,101308.72
2022-10-02T00:41:24.161Z,101304.63
2022-10-02T00:44:11.274Z,101314.50
2022-10-02T00:46:49.861Z,101317.38
2022-10-02T00:49:48.289Z,101321.91
2022-10-02T00:52:17.577Z,101314.53
2022-10-02T00:55:08.669Z,101310.63
2022-10-02T00:57:47.390Z,101310.03
2022-10-02T01:00:21.243Z,101310.44
2022-10-02T01:03:11.456Z,101303.06
2022-10-02T01:05:38.579Z,101308.78
2022-10-02T01:08:05.947Z,101307.59
2022-10-02T01:10:33.715Z,101295.69
2022-10-02T01:13:00.323Z,101304.28
2022-10-02T01:15:31.874Z,101304.88
2022-10-02T01:17:58.855Z,101305.91
2022-10-02T01:20:34.719Z,101305.28
2022-10-02T01:23:33.048Z,101313.06
2022-10-02T01:26:00.018Z,101314.50
2022-10-02T01:28:26.901Z,101312.88
2022-10-02T01:30:59.683Z,101315.53
2022-10-02T01:33:26.364Z,101326.38
2022-10-02T01:35:53.029Z,101327.59
2022-10-02T01:38:23.320Z,101332.06
2022-10-02T01:40:49.747Z,101328.84
2022-10-02T01:43:24.660Z,101334.22
2022-10-02T01:45:58.994Z,101343.63
2022-10-02T01:48:52.794Z,101346.47
2022-10-02T01:51:37.553Z,101355.09
2022-10-02T01:54:48.690Z,101350.59
2022-10-02T01:57:35.209Z,101350.84
2022-10-02T02:00:18.238Z,101346.88
2022-10-02T02:03:12.368Z,101347.66
2022-10-02T02:05:54.054Z,101346.41
2022-10-02T02:08:20.436Z,101339.03
2022-10-02T02:11:09.017Z,101344.09
2022-10-02T02:13:38.410Z,101345.69
2022-10-02T02:16:20.625Z,101331.56
2022-10-02T02:19:04.356Z,101339.53
2022-10-02T02:21:36.565Z,101340.56
2022-10-02T02:24:10.501Z,101345.69
2022-10-02T02:26:39.119Z,101342.09
2022-10-02T02:29:08.611Z,101340.28
2022-10-02T02:31:49.141Z,101343.13
2022-10-02T02:34:22.858Z,101349.19
2022-10-02T02:36:55.293Z,101351.66
2022-10-02T02:39:40.199Z,101347.97
2022-10-02T02:42:12.108Z,101346.94
2022-10-02T02:44:51.902Z,101342.13
2022-10-02T02:47:22.571Z,101337.19
2022-10-02T02:50:16.265Z,101338.97
2022-10-02T02:52:53.108Z,101336.47
2022-10-02T02:55:28.118Z,101332.16
2022-10-02T02:57:57.224Z,101348.78
2022-10-02T03:00:25.096Z,101341.97
2022-10-02T03:02:54.505Z,101340.53
2022-10-02T03:05:22.800Z,101342.97
2022-10-02T03:07:53.829Z,101348.91
2022-10-02T03:10:44.430Z,101352.16
2022-10-02T03:13:16.580Z,101355.63
2022-10-02T03:16:03.030Z,101356.84
2022-10-02T03:18:45.782Z,101358.91
2022-10-02T03:21:23.878Z,101353.59
2022-10-02T03:24:04.469Z,101352.38
2022-10-02T03:26:41.777Z,101350.94
2022-10-02T03:29:17.480Z,101363.44
2022-10-02T03:31:45.064Z,101376.47
2022-10-02T03:34:12.443Z,101374.22
2022-10-02T03:36:39.460Z,101371.94
2022-10-02T03:39:24.324Z,101374.44
2022-10-02T03:41:51.991Z,101370.38
2022-10-02T03:44:18.410Z,101373.66
2022-10-02T03:46:45.066Z,101372.44
2022-10-02T03:49:11.610Z,101375.47
2022-10-02T03:51:38.059Z,101376.44
2022-10-02T03:54:13.015Z,101374.81
2022-10-02T03:57:03.408Z,101384.66
2022-10-02T03:59:41.987Z,101378.25
2022-10-02T04:02:39.259Z,101383.34
2022-10-02T04:05:11.981Z,101389.88
2022-10-02T04:07:42.293Z,101385.59
2022-10-02T04:10:21.987Z,101400.78
2022-10-02T04:12:52.289Z,101392.44
2022-10-02T04:15:30.482Z,101395.63
2022-10-02T04:18:10.953Z,101411.56
2022-10-02T04:20:47.332Z,101421.16
2022-10-02T04:23:36.640Z,101414.00
2022-10-02T04:26:11.268Z,101407.81
2022-10-02T04:28:42.507Z,101419.25
2022-10-02T04:31:12.528Z,101407.59
2022-10-02T04:33:39.369Z,101423.34
2022-10-02T04:36:26.659Z,101424.59
2022-10-02T04:39:02.242Z,101433.34
2022-10-02T04:41:47.057Z,101444.94
2022-10-02T04:44:19.662Z,101440.94
2022-10-02T04:47:05.923Z,101448.09
2022-10-02T04:49:47.861Z,101444.75
2022-10-02T04:52:35.013Z,101450.25
2022-10-02T04:55:39.109Z,101451.78
2022-10-02T04:58:59.279Z,101461.75
2022-10-02T05:01:48.296Z,101452.88
2022-10-02T05:04:23.026Z,101446.53
2022-10-02T05:07:24.670Z,101437.16
2022-10-02T05:10:21.572Z,101445.75
2022-10-02T05:13:10.474Z,101449.19
2022-10-02T05:16:03.484Z,101462.44
2022-10-02T05:18:59.884Z,101456.84
2022-10-02T05:22:08.706Z,101457.16
2022-10-02T05:24:46.183Z,101458.56
2022-10-02T05:27:21.346Z,101469.19
2022-10-02T05:30:04.842Z,101472.38
2022-10-02T05:32:50.627Z,101461.09
2022-10-02T05:35:35.202Z,101469.81
2022-10-02T05:38:35.695Z,101473.25
2022-10-02T05:41:37.079Z,101469.97
2022-10-02T05:44:14.775Z,101468.53
2022-10-02T05:46:58.894Z,101459.97
2022-10-02T05:49:29.186Z,101458.94
2022-10-02T05:52:02.372Z,101458.28
2022-10-02T05:54:37.223Z,101460.72
2022-10-02T05:57:18.949Z,101464.75
2022-10-02T05:59:54.617Z,101464.13
2022-10-02T06:02:38.194Z,101474.19
2022-10-02T06:05:15.023Z,101466.66
2022-10-02T06:07:45.883Z,101469.38
2022-10-02T06:10:19.718Z,101477.13
2022-10-02T06:12:55.672Z,101479.56
2022-10-02T06:15:32.003Z,101478.53
2022-10-02T06:18:05.420Z,101486.84
2022-10-02T06:20:45.040Z,101484.69
2022-10-02T06:23:43.616Z,101496.81
2022-10-02T06:26:16.466Z,101501.84
2022-10-02T06:28:51.209Z,101502.91
2022-10-02T06:31:25.966Z,101516.00
2022-10-02T06:33:53.059Z,101511.13
2022-10-02T06:36:35.173Z,101513.56
2022-10-02T06:39:17.019Z,101511.09
2022-10-02T06:41:56.662Z,101511.13
2022-10-02T06:45:10.886Z,101506.44
2022-10-02T06:48:03.761Z,101514.09
2022-10-02T06:50:42.691Z,101505.91
2022-10-02T06:53:20.327Z,101512.47
2022-10-02T06:56:17.755Z,101514.19
2022-10-02T06:59:07.186Z,101513.22
2022-10-02T07:02:09.941Z,101521.28
2022-10-02T07:04:58.128Z,101519.50
2022-10-02T07:07:57.851Z,101523.38
2022-10-02T07:10:35.777Z,101513.78
2022-10-02T07:13:17.912Z,101517.81
2022-10-02T07:15:52.545Z,101519.50
2022-10-02T07:18:47.164Z,101526.94
2022-10-02T07:21:22.045Z,101527.91
2022-10-02T07:24:13.104Z,101527.03
2022-10-02T07:26:45.742Z,101516.03
2022-10-02T07:29:21.118Z,101506.50
2022-10-02T07:32:21.428Z,101509.91
2022-10-02T07:35:06.705Z,101513.03
2022-10-02T07:38:05.996Z,101510.19
2022-10-02T07:40:50.834Z,101516.38
2022-10-02T07:43:39.586Z,101517.97
2022-10-02T07:46:27.348Z,101520.84
2022-10-02T07:49:22.136Z,101523.13
2022-10-02T07:52:03.509Z,101518.59
2022-10-02T07:54:49.068Z,101508.97
2022-10-02T07:57:27.624Z,101511.03
2022-10-02T08:00:10.959Z,101510.31
2022-10-02T08:02:50.128Z,101524.72
2022-10-02T08:05:24.141Z,101517.88
2022-10-02T08:07:55.055Z,101528.84
2022-10-02T08:10:26.262Z,101534.41
2022-10-02T08:13:00.561Z,101528.00
2022-10-02T08:15:33.520Z,101535.50
2022-10-02T08:18:30.051Z,101524.84
2022-10-02T08:20:55.115Z,101507.81
2022-10-02T08:23:34.115Z,101504.97
2022-10-02T08:26:07.477Z,101516.13
2022-10-02T08:29:01.221Z,101522.19
2022-10-02T08:31:27.851Z,101517.47
2022-10-02T08:33:55.496Z,101522.81
2022-10-02T08:36:35.094Z,101524.38
2022-10-02T08:39:20.368Z,101520.66
2022-10-02T08:42:11.519Z,101514.25
2022-10-02T08:45:02.308Z,101519.69
2022-10-02T08:47:37.855Z,101510.53
2022-10-02T08:50:38.171Z,101503.31
2022-10-02T08:53:10.765Z,101505.53
2022-10-02T08:55:47.306Z,101490.28
2022-10-02T08:58:27.332Z,101484.56
2022-10-02T09:01:10.334Z,101489.50
2022-10-02T09:03:52.202Z,101497.66
2022-10-02T09:06:30.863Z,101495.06
2022-10-02T09:09:31.610Z,101489.75
2022-10-02T09:12:13.361Z,101483.66
2022-10-02T09:14:39.752Z,101484.91
2022-10-02T09:17:16.005Z,101489.91
2022-10-02T09:20:19.631Z,101480.13
2022-10-02T09:23:23.628Z,101473.06
2022-10-02T09:25:53.851Z,101477.09
2022-10-02T09:28:33.122Z,101472.94
2022-10-02T09:31:33.552Z,101479.13
2022-10-02T09:34:34.721Z,101453.25
2022-10-02T09:37:07.839Z,101473.44
2022-10-02T09:39:51.491Z,101468.38
2022-10-02T09:42:43.707Z,101466.22
2022-10-02T09:45:22.488Z,101472.75
2022-10-02T09:47:53.353Z,101476.22
2022-10-02T09:50:38.282Z,101470.25
2022-10-02T09:53:39.090Z,101468.78
2022-10-02T09:56:11.596Z,101459.56
2022-10-02T09:59:31.971Z,101466.69
2022-10-02T10:02:27.717Z,101457.50
2022-10-02T10:05:09.225Z,101455.81
2022-10-02T10:07:53.926Z,101451.41
2022-10-02T10:11:00.562Z,101451.53
2022-10-02T10:13:44.967Z,101450.16
2022-10-02T10:16:32.030Z,101449.38
2022-10-02T10:19:23.628Z,101426.94
2022-10-02T10:22:17.344Z,101419.94
2022-10-02T10:25:17.241Z,101415.75
2022-10-02T10:28:12.050Z,101411.19
2022-10-02T10:31:10.207Z,101411.50
2022-10-02T10:33:55.587Z,101403.94
2022-10-02T10:36:57.375Z,101393.84
2022-10-02T10:39:39.255Z,101395.16
2022-10-02T10:42:05.582Z,101384.56
2022-10-02T10:44:34.640Z,101386.66
2022-10-02T10:47:29.246Z,101393.31
2022-10-02T10:50:38.448Z,101388.78
2022-10-02T10:53:17.106Z,101389.69
2022-10-02T10:56:21.742Z,101394.97
2022-10-02T10:59:25.365Z,101392.88
2022-10-02T11:02:03.967Z,101380.53
2022-10-02T11:05:07.785Z,101380.75
2022-10-02T11:07:52.859Z,101374.75
2022-10-02T11:10:42.788Z,101374.56
2022-10-02T11:13:25.562Z,101376.09
2022-10-02T11:16:00.488Z,101373.41
2022-10-02T11:18:40.206Z,101369.97
2022-10-02T11:21:39.702Z,101370.94
2022-10-02T11:24:36.292Z,101366.19
2022-10-02T11:27:34.130Z,101360.00
2022-10-02T11:30:25.256Z,101356.66
2022-10-02T11:33:13.172Z,101361.38
2022-10-02T11:36:21.187Z,101349.84
2022-10-02T11:39:26.684Z,101346.16
2022-10-02T11:42:23.026Z,101341.34
2022-10-02T11:44:55.232Z,101340.59
2022-10-02T11:47:37.018Z,101336.63
2022-10-02T11:50:41.332Z,101333.75
2022-10-02T11:53:26.014Z,101330.84
2022-10-02T11:55:55.377Z,101325.50
2022-10-02T11:59:00.587Z,101323.16
2022-10-02T12:01:43.087Z,101326.84
2022-10-02T12:04:12.495Z,101324.31
2022-10-02T12:07:05.055Z,101316.78
2022-10-02T12:09:39.734Z,101310.47
2022-10-02T12:12:38.496Z,101313.63
2022-10-02T12:15:14.468Z,101310.34
2022-10-02T12:17:53.394Z,101315.75
2022-10-02T12:21:13.357Z,101319.97
2022-10-02T12:25:02.561Z,101307.31
2022-10-02T12:27:50.896Z,101315.00
2022-10-02T12:30:30.580Z,101302.53
2022-10-02T12:33:08.627Z,101309.38
2022-10-02T12:35:47.114Z,101302.28
2022-10-02T12:38:35.455Z,101301.66
2022-10-02T12:41:20.800Z,101294.69
2022-10-02T12:44:06.048Z,101295.50
2022-10-02T12:46:59.647Z,101290.88
2022-10-02T12:49:59.478Z,101282.47
2022-10-02T12:52:54.002Z,101272.75
2022-10-02T12:55:38.855Z,101274.16
2022-10-02T12:58:24.571Z,101281.25
2022-10-02T13:01:15.860Z,101269.22
2022-10-02T13:04:18.441Z,101275.31
2022-10-02T13:07:30.192Z,101273.09
2022-10-02T13:10:05.625Z,101269.94
2022-10-02T13:12:54.195Z,101259.94
2022-10-02T13:15:39.092Z,101256.59
2022-10-02T13:18:17.141Z,101249.19
2022-10-02T13:21:11.857Z,101243.94
2022-10-02T13:24:05.934Z,101244.53
2022-10-02T13:26:42.483Z,101246.91
2022-10-02T13:29:20.953Z,101234.78
2022-10-02T13:32:09.305Z,101232.09
2022-10-02T13:34:51.919Z,101223.59
2022-10-02T13:37:47.212Z,101230.69
2022-10-02T13:40:23.809Z,101217.22
2022-10-02T13:43:21.355Z,101208.97
2022-10-02T13:46:24.451Z,101199.00
2022-10-02T13:48:56.929Z,101188.53
2022-10-02T13:51:42.261Z,101190.75
2022-10-02T13:54:22.714Z,101178.78
2022-10-02T13:57:06.910Z,101171.94
2022-10-02T13:59:54.844Z,101159.75
2022-10-02T14:02:50.714Z,101160.88
2022-10-02T14:05:43.999Z,101158.19
2022-10-02T14:08:38.869Z,101154.53
2022-10-02T14:11:40.412Z,101154.97
2022-10-02T14:14:24.304Z,101148.34
2022-10-02T14:16:53.616Z,101146.34
2022-10-02T14:19:30.443Z,101149.78
2022-10-02T14:22:14.214Z,101135.41
2022-10-02T14:25:04.267Z,101134.44
2022-10-02T14:27:46.059Z,101130.31
2022-10-02T14:30:19.997Z,101134.53
2022-10-02T14:33:01.743Z,101126.34
2022-10-02T14:35:36.946Z,101119.44
2022-10-02T14:38:13.391Z,101118.66
2022-10-02T14:40:56.146Z,101109.66
2022-10-02T14:43:46.588Z,101104.75
2022-10-02T14:46:30.486Z,101107.94
2022-10-02T14:49:06.077Z,101096.16
2022-10-02T14:51:56.453Z,101091.56
2022-10-02T14:54:34.100Z,101082.44
2022-10-02T14:57:43.614Z,101085.59
2022-10-02T15:00:17.562Z,101080.13
2022-10-02T15:03:10.981Z,101076.88
2022-10-02T15:06:14.787Z,101078.91
2022-10-02T15:08:50.086Z,101078.03
2022-10-02T15:11:25.522Z,101068.84
2022-10-02T15:14:06.569Z,101066.44
2022-10-02T15:17:01.729Z,101074.13
2022-10-02T15:19:49.097Z,101071.09
2022-10-02T15:22:25.952Z,101067.00
2022-10-02T15:25:17.643Z,101060.91
2022-10-02T15:27:47.114Z,101059.69
2022-10-02T15:30:20.355Z,101057.91
2022-10-02T15:33:10.751Z,101056.84
2022-10-02T15:35:49.193Z,101048.84
2022-10-02T15:38:31.481Z,101036.72
2022-10-02T15:41:36.633Z,101042.53
2022-10-02T15:44:25.383Z,101039.81
2022-10-02T15:46:54.860Z,101042.22
2022-10-02T15:50:04.081Z,101041.16
2022-10-02T15:52:51.137Z,101044.97
2022-10-02T15:55:37.531Z,101045.78
2022-10-02T15:58:07.001Z,101047.34
2022-10-02T16:01:00.756Z,101057.19
2022-10-02T16:03:33.095Z,101045.38
2022-10-02T16:06:32.565Z,101039.59
2022-10-02T16:09:04.787Z,101048.88
2022-10-02T16:11:57.635Z,101040.19
2022-10-02T16:14:52.382Z,101044.34
2022-10-02T16:17:43.481Z,101042.97
2022-10-02T16:20:32.232Z,101046.06
2022-10-02T16:23:01.591Z,101045.91
2022-10-02T16:25:41.932Z,101051.97
2022-10-02T16:28:39.396Z,101056.53
2022-10-02T16:31:47.017Z,101045.25
2022-10-02T16:34:42.082Z,101057.88
2022-10-02T16:37:23.818Z,101051.69
2022-10-02T16:39:58.925Z,101048.28
2022-10-02T16:42:34.518Z,101043.38
2022-10-02T16:45:20.852Z,101039.72
2022-10-02T16:48:14.417Z,101041.59
2022-10-02T16:50:43.827Z,101043.78
2022-10-02T16:53:24.454Z,101044.16
2022-10-02T16:56:15.195Z,101049.66
2022-10-02T16:58:49.302Z,101049.25
2022-10-02T17:01:30.614Z,101049.38
2022-10-02T17:04:34.796Z,101047.53
2022-10-02T17:07:18.116Z,101040.97
2022-10-02T17:09:49.482Z,101039.81
2022-10-02T17:12:28.345Z,101035.16
2022-10-02T17:15:07.049Z,101029.28
2022-10-02T17:17:42.450Z,101033.44
2022-10-02T17:20:20.191Z,101035.22
2022-10-02T17:23:05.107Z,101031.00
2022-10-02T17:25:42.065Z,101035.88
2022-10-02T17:28:08.521Z,101041.25
2022-10-02T17:31:16.896Z,101044.06
2022-10-02T17:33:53.124Z,101040.84
2022-10-02T17:36:28.284Z,101037.34
2022-10-02T17:39:16.564Z,101034.44
2022-10-02T17:41:49.196Z,101029.59
2022-10-02T17:44:27.623Z,101033.78
2022-10-02T17:47:19.155Z,101039.88
2022-10-02T17:49:54.375Z,101045.56
2022-10-02T17:53:01.576Z,101044.03
2022-10-02T17:56:05.313Z,101043.44
2022-10-02T17:58:59.536Z,101034.75
2022-10-02T18:02:02.455Z,101032.91
2022-10-02T18:04:31.938Z,101023.63
2022-10-02T18:06:58.350Z,101022.09
2022-10-02T18:09:31.722Z,101017.88
2022-10-02T18:12:29.516Z,101021.94
2022-10-02T18:15:23.603Z,101030.59
2022-10-02T18:18:18.364Z,101012.41
2022-10-02T18:20:44.764Z,101023.06
2022-10-02T18:23:36.024Z,101015.09
2022-10-02T18:26:25.767Z,101015.75
2022-10-02T18:29:10.634Z,101013.25
2022-10-02T18:32:19.410Z,101022.03
2022-10-02T18:34:56.931Z,101015.81
2022-10-02T18:37:58.608Z,101011.31
2022-10-02T18:40:35.189Z,101015.44
2022-10-02T18:43:13.845Z,101010.03
2022-10-02T18:46:06.768Z,101008.44
2022-10-02T18:49:03.111Z,101023.22
2022-10-02T18:51:52.447Z,101016.22
2022-10-02T18:54:33.470Z,101016.72
2022-10-02T18:57:09.321Z,101021.63
2022-10-02T19:00:27.271Z,101014.19
2022-10-02T19:02:53.665Z,101020.28
2022-10-02T19:05:35.372Z,101025.72
2022-10-02T19:08:04.725Z,101025.50
2022-10-02T19:10:31.445Z,101029.25
2022-10-02T19:13:18.093Z,101033.44
2022-10-02T19:15:48.238Z,101037.50
2022-10-02T19:18:26.141Z,101043.19
2022-10-02T19:21:08.299Z,101044.03
2022-10-02T19:23:46.926Z,101042.88
2022-10-02T19:26:24.523Z,101041.81
2022-10-02T19:28:59.866Z,101039.84
2022-10-02T19:31:30.608Z,101054.06
2022-10-02T19:34:03.895Z,101051.56
2022-10-02T19:36:42.821Z,101050.97
2022-10-02T19:39:22.781Z,101052.47
2022-10-02T19:41:55.631Z,101061.91
2022-10-02T19:44:38.347Z,101068.28
2022-10-02T19:47:17.120Z,101062.69
2022-10-02T19:49:47.716Z,101059.91
2022-10-02T19:52:53.793Z,101067.72
2022-10-02T19:55:27.837Z,101074.78
2022-10-02T19:58:04.881Z,101073.13
2022-10-02T20:00:35.352Z,101073.25
2022-10-02T20:03:10.549Z,101073.13
2022-10-02T20:05:37.989Z,101069.84
2022-10-02T20:08:13.478Z,101074.75
2022-10-02T20:11:04.938Z,101075.41
2022-10-02T20:13:40.934Z,101082.06
2022-10-02T20:16:42.114Z,101087.94
2022-10-02T20:19:46.106Z,101093.00
2022-10-02T20:22:36.412Z,101100.44
2022-10-02T20:25:11.846Z,101093.47
2022-10-02T20:27:50.438Z,101094.59
2022-10-02T20:30:19.692Z,101098.53
2022-10-02T20:33:09.640Z,101098.31
2022-10-02T20:36:17.028Z,101087.97
2022-10-02T20:38:47.701Z,101093.81
2022-10-02T20:41:21.318Z,101100.28
2022-10-02T20:43:51.308Z,101107.06
2022-10-02T20:46:35.795Z,101102.38
2022-10-02T20:49:24.066Z,101112.00
2022-10-02T20:51:53.656Z,101119.25
2022-10-02T20:54:39.751Z,101132.09
2022-10-02T20:57:59.527Z,101132.53
2022-10-02T21:00:28.872Z,101145.28
2022-10-02T21:03:13.632Z,101145.44
2022-10-02T21:06:05.179Z,101142.53
2022-10-02T21:08:50.042Z,101145.28
2022-10-02T21:11:20.874Z,101143.63
2022-10-02T21:14:33.479Z,101136.44
2022-10-02T21:17:24.065Z,101136.31
2022-10-02T21:20:16.565Z,101149.88
2022-10-02T21:22:54.764Z,101144.31
2022-10-02T21:25:40.307Z,101142.06
2022-10-02T21:28:13.473Z,101138.38
2022-10-02T21:31:08.950Z,101138.44
2022-10-02T21:33:50.176Z,101139.69
2022-10-02T21:36:27.790Z,101140.09
2022-10-02T21:39:12.528Z,101141.13
2022-10-02T21:42:17.479Z,101145.81
2022-10-02T21:45:04.662Z,101147.34
2022-10-02T21:47:43.807Z,101144.75
2022-10-02T21:50:53.399Z,101131.38
2022-10-02T21:53:38.640Z,101136.94
2022-10-02T21:56:13.840Z,101131.44
2022-10-02T21:59:17.829Z,101132.56
2022-10-02T22:02:19.403Z,101131.59
2022-10-02T22:05:30.384Z,101131.59
2022-10-02T22:08:08.657Z,101132.41
2022-10-02T22:11:09.686Z,101130.25
2022-10-02T22:13:43.679Z,101131.28
2022-10-02T22:16:51.646Z,101127.72
2022-10-02T22:19:37.809Z,101127.16
2022-10-02T22:22:39.730Z,101127.22
2022-10-02T22:25:35.763Z,101128.06
2022-10-02T22:28:46.844Z,101132.44
2022-10-02T22:32:20.812Z,101124.00
2022-10-02T22:34:59.100Z,101128.06
2022-10-02T22:37:45.816Z,101128.66
2022-10-02T22:40:22.436Z,101122.09
2022-10-02T22:43:09.991Z,101114.50
2022-10-02T22:45:45.920Z,101115.53
2022-10-02T22:48:17.142Z,101121.69
2022-10-02T22:50:51.551Z,101124.38
2022-10-02T22:53:26.705Z,101127.63
2022-10-02T22:55:57.371Z,101125.13
2022-10-02T22:58:41.788Z,101115.84
2022-10-02T23:01:16.145Z,101118.09
2022-10-02T23:03:58.111Z,101124.22
2022-10-02T23:06:31.363Z,101125.44
2022-10-02T23:09:17.383Z,101123.81
2022-10-02T23:12:07.256Z,101127.91
2022-10-02T23:15:11.323Z,101116.94
2022-10-02T23:17:46.165Z,101106.94
2022-10-02T23:20:42.820Z,101117.28
2022-10-02T23:23:23.156Z,101121.81
2022-10-02T23:26:01.492Z,101120.00
2022-10-02T23:28:53.160Z,101134.56
2022-10-02T23:31:30.358Z,101133.38
2022-10-02T23:34:07.348Z,101130.84
2022-10-02T23:37:01.840Z,101133.31
2022-10-02T23:40:04.219Z,101126.97
2022-10-02T23:42:45.066Z,101126.00
2022-10-02T23:45:24.135Z,101125.31
2022-10-02T23:47:58.858Z,101129.28
2022-10-02T23:50:46.706Z,101127.25
2022-10-02T23:53:40.307Z,101124.91
2022-10-02T23:56:32.122Z,101127.22
2022-10-02T23:59:01.275Z,101129.44
